Flugplatz Dessau

Für EDAD sind keine METAR/TAF Berichte vorhanden.
Es werden die Flugwettermeldungen vom Flugplatz Leipzig Halle in 45 km Entfernung angezeigt.

Bericht für EDDP

vom 31.05. um 09:50 UTC

Wind 8 kt aus 360°

Sichtweite 10 km oder mehr

gering bewölkt in 3100 ft

Temperatur 16.0°C

Taupunkt 7.0°C

Luftfeuchtigkeit 55%

Luftdruck 1022 hPa

keine wesentliche Wetteränderung innerhalb den nächsten 2 Stunden zu erwarten

EDDP 310950Z 36008KT 320V030 9999 FEW031 16/07 Q1022 NOSIG

Prognose für EDDP

vom 31.05. um 05:00 UTC

Zwischen 06:00 UTC und 06:00 UTC

Wind 5 kt aus 350°

Sichtweite 10 km oder mehr

keine signifikanten Wettererscheinungen

keine Wolken


Zwischen 06:00 und 09:00 UTC übergehend zu

Wind 10 kt aus 350°

Sichtweite 10 km oder mehr

keine signifikanten Wettererscheinungen

keine Wolken


Zwischen 18:00 und 21:00 UTC übergehend zu

Wind 5 kt aus 360°

Sichtweite 10 km oder mehr

keine signifikanten Wettererscheinungen

keine Wolken

TAF EDDP 310500Z 3106/0106 35005KT CAVOK BECMG 3106/3109 35010KT BECMG 3118/3121 36005KT
Impressum